createdAt,value
2019-06-15T00:05:19.366Z,17.4
2019-06-15T00:10:49.727Z,17.3
2019-06-15T00:16:20.349Z,17.3
2019-06-15T00:21:50.377Z,17.3
2019-06-15T00:27:19.540Z,17.3
2019-06-15T00:32:49.833Z,17.3
2019-06-15T00:38:19.098Z,17.2
2019-06-15T00:43:49.513Z,17.1
2019-06-15T00:49:19.869Z,17.1
2019-06-15T00:54:50.514Z,17
2019-06-15T01:00:18.156Z,17
2019-06-15T01:05:48.392Z,17
2019-06-15T01:11:18.591Z,17
2019-06-15T01:16:47.840Z,17
2019-06-15T01:22:17.114Z,17
2019-06-15T01:27:46.366Z,16.9
2019-06-15T01:33:25.825Z,16.9
2019-06-15T01:38:45.876Z,16.9
2019-06-15T01:44:16.146Z,16.9
2019-06-15T01:49:46.244Z,16.9
2019-06-15T01:55:20.740Z,17
2019-06-15T02:00:45.757Z,17
2019-06-15T02:06:14.967Z,17
2019-06-15T02:11:44.183Z,17
2019-06-15T02:17:13.455Z,17
2019-06-15T02:22:43.676Z,17
2019-06-15T02:28:12.987Z,17
2019-06-15T02:33:42.205Z,17
2019-06-15T02:39:12.432Z,17
2019-06-15T02:50:11.038Z,17
2019-06-15T02:55:50.043Z,17
2019-06-15T03:01:09.422Z,17
2019-06-15T03:06:38.629Z,17
2019-06-15T03:12:07.880Z,17
2019-06-15T03:17:38.163Z,17
2019-06-15T03:23:07.443Z,17
2019-06-15T03:28:36.688Z,17
2019-06-15T03:34:09.947Z,17
2019-06-15T03:39:36.504Z,17
2019-06-15T03:45:06.627Z,17
2019-06-15T03:50:35.689Z,17
2019-06-15T03:56:20.455Z,17
2019-06-15T04:01:36.178Z,17
2019-06-15T04:07:05.394Z,17
2019-06-15T04:12:35.882Z,17
2019-06-15T04:18:04.903Z,17
2019-06-15T04:23:35.179Z,17.1
2019-06-15T04:29:04.500Z,17.1
2019-06-15T04:34:34.662Z,17.1
2019-06-15T04:40:04.335Z,17.1
2019-06-15T04:45:34.327Z,17.2
2019-06-15T04:51:04.452Z,17.2
2019-06-15T04:56:33.802Z,17.2
2019-06-15T05:02:02.991Z,17.2
2019-06-15T05:07:33.318Z,17.2
2019-06-15T05:13:02.486Z,17.1
2019-06-15T05:18:31.784Z,17.1
2019-06-15T05:24:02.039Z,17.2
2019-06-15T05:29:32.344Z,17.2
2019-06-15T05:35:01.754Z,17.2
2019-06-15T05:40:31.875Z,17.2
2019-06-15T05:46:02.801Z,17.2
2019-06-15T05:51:32.392Z,17.2
2019-06-15T05:57:01.780Z,17.3
2019-06-15T06:08:01.537Z,17.4
2019-06-15T06:13:38.049Z,17.4
2019-06-15T06:19:00.933Z,17.4
2019-06-15T06:24:31.211Z,17.4
2019-06-15T06:30:01.747Z,17.3
2019-06-15T06:35:30.702Z,17.3
2019-06-15T06:40:59.944Z,17.2
2019-06-15T06:46:30.272Z,17.2
2019-06-15T06:52:00.593Z,17.2
2019-06-15T06:57:29.764Z,17.2
2019-06-15T07:02:59.114Z,17.3
2019-06-15T07:08:35.645Z,17.3
2019-06-15T07:13:58.721Z,17.3
2019-06-15T07:19:27.975Z,17.3
2019-06-15T07:25:02.683Z,17.4
2019-06-15T07:30:26.541Z,17.4
2019-06-15T07:35:55.739Z,17.4
2019-06-15T07:41:26.080Z,17.4
2019-06-15T07:46:55.313Z,17.4
2019-06-15T07:52:25.488Z,17.3
2019-06-15T07:57:55.998Z,17.3
2019-06-15T08:03:25.338Z,17.3
2019-06-15T08:08:54.890Z,17.3
2019-06-15T08:14:24.644Z,17.3
2019-06-15T08:19:54.853Z,17.3
2019-06-15T08:30:54.603Z,17.3
2019-06-15T08:36:23.826Z,17.3
2019-06-15T08:41:54.938Z,17.4
2019-06-15T08:47:23.301Z,17.4
2019-06-15T08:52:53.662Z,17.4
2019-06-15T08:58:23.837Z,17.4
2019-06-15T09:03:54.163Z,17.5
2019-06-15T09:09:23.615Z,17.6
2019-06-15T09:14:52.805Z,17.7
2019-06-15T09:20:22.057Z,17.8
2019-06-15T09:25:52.441Z,17.8
2019-06-15T09:31:21.818Z,17.9
2019-06-15T09:36:51.209Z,18
2019-06-15T09:42:21.101Z,18
2019-06-15T09:47:49.762Z,18.1
2019-06-15T09:53:20.025Z,18.1
2019-06-15T09:58:50.934Z,18.3
2019-06-15T10:04:18.852Z,18.3
2019-06-15T10:09:49.121Z,18.4
2019-06-15T10:15:18.582Z,18.4
2019-06-15T10:20:48.905Z,18.4
2019-06-15T10:26:18.240Z,18.3
2019-06-15T10:31:48.657Z,18.3
2019-06-15T10:37:17.946Z,18.2
2019-06-15T10:42:48.331Z,18
2019-06-15T10:48:18.571Z,17.9
2019-06-15T10:53:49.283Z,17.8
2019-06-15T10:59:18.224Z,17.7
2019-06-15T11:04:48.489Z,17.6
2019-06-15T11:10:17.806Z,17.5
2019-06-15T11:15:48.122Z,17.5
2019-06-15T11:21:17.360Z,17.4
2019-06-15T11:26:46.586Z,17.4
2019-06-15T11:32:22.974Z,17.4
2019-06-15T11:37:46.210Z,17.4
2019-06-15T11:43:16.458Z,17.3
2019-06-15T11:48:45.805Z,17.2
2019-06-15T11:54:16.236Z,17.2
2019-06-15T11:59:45.395Z,17.3
2019-06-15T12:05:14.635Z,17.4
2019-06-15T12:10:43.781Z,17.6
2019-06-15T12:16:13.117Z,17.7
2019-06-15T12:21:43.365Z,17.7
2019-06-15T12:27:13.682Z,17.8
2019-06-15T12:32:44.143Z,17.9
2019-06-15T12:38:14.348Z,18
2019-06-15T12:43:44.712Z,18.1
2019-06-15T12:49:14.110Z,18.1
2019-06-15T12:54:44.388Z,18.1
2019-06-15T13:00:14.761Z,18.1
2019-06-15T13:05:45.144Z,17.9
2019-06-15T13:11:15.429Z,17.6
2019-06-15T13:16:47.847Z,17.4
2019-06-15T13:22:15.605Z,17.3
2019-06-15T13:27:43.237Z,17.2
2019-06-15T13:33:13.431Z,17.1
2019-06-15T13:38:43.636Z,17
2019-06-15T13:44:13.922Z,16.9
2019-06-15T13:49:43.117Z,16.8
2019-06-15T14:00:42.354Z,16.6
2019-06-15T14:06:12.563Z,16.6
2019-06-15T14:11:43.282Z,16.5
2019-06-15T14:17:12.968Z,16.5
2019-06-15T14:22:42.042Z,16.5
2019-06-15T14:28:12.675Z,16.5
2019-06-15T14:33:41.542Z,16.5
2019-06-15T14:39:11.633Z,16.5
2019-06-15T14:44:41.972Z,16.5
2019-06-15T14:50:22.351Z,16.6
2019-06-15T15:01:11.391Z,16.7
2019-06-15T15:06:41.867Z,16.8
2019-06-15T15:12:10.753Z,16.9
2019-06-15T15:17:40.995Z,16.9
2019-06-15T15:28:41.511Z,17
2019-06-15T15:34:10.997Z,17.1
2019-06-15T15:39:41.253Z,17.1
2019-06-15T15:45:11.149Z,17.2
2019-06-15T15:50:41.558Z,17.2
2019-06-15T15:56:10.833Z,17.3
2019-06-15T16:01:41.114Z,17.5
2019-06-15T16:07:11.239Z,17.6
2019-06-15T16:12:41.653Z,17.9
2019-06-15T16:18:10.897Z,18.2
2019-06-15T16:29:10.630Z,18.6
2019-06-15T16:34:40.078Z,18.6
2019-06-15T16:40:09.446Z,18.6
2019-06-15T16:45:38.828Z,18.6
2019-06-15T16:51:08.284Z,18.5
2019-06-15T16:56:37.574Z,18.4
2019-06-15T17:02:06.970Z,18.3
2019-06-15T17:07:37.273Z,18.4
2019-06-15T17:13:06.936Z,18.4
2019-06-15T17:18:38.192Z,18.3
2019-06-15T17:24:06.704Z,18.3
2019-06-15T17:29:34.773Z,18.3
2019-06-15T17:35:06.117Z,18.3
2019-06-15T17:40:36.442Z,18.2
2019-06-15T17:46:07.158Z,18.2
2019-06-15T17:51:36.611Z,18.2
2019-06-15T17:57:03.647Z,18.2
2019-06-15T18:02:33.831Z,18.1
2019-06-15T18:08:06.501Z,18
2019-06-15T18:13:47.141Z,17.9
2019-06-15T18:19:03.800Z,17.8
2019-06-15T18:24:39.423Z,17.7
2019-06-15T18:30:06.376Z,17.6
2019-06-15T18:35:32.654Z,17.5
2019-06-15T18:41:02.791Z,17.4
2019-06-15T18:46:32.421Z,17.3
2019-06-15T18:52:02.451Z,17.2
2019-06-15T18:57:32.479Z,17.2
2019-06-15T19:03:02.680Z,17.1
2019-06-15T19:08:32.109Z,17
2019-06-15T19:14:01.109Z,16.9
2019-06-15T19:19:31.342Z,16.9
2019-06-15T19:25:00.499Z,16.8
2019-06-15T19:30:29.832Z,16.7
2019-06-15T19:35:58.948Z,16.6
2019-06-15T19:41:29.199Z,16.5
2019-06-15T19:47:00.256Z,16.4
2019-06-15T19:52:28.401Z,16.3
2019-06-15T19:57:57.379Z,16.3
2019-06-15T20:03:27.275Z,16.2
2019-06-15T20:08:56.245Z,16.1
2019-06-15T20:14:25.702Z,16
2019-06-15T20:19:55.980Z,15.9
2019-06-15T20:25:26.826Z,15.8
2019-06-15T20:30:57.020Z,15.7
2019-06-15T20:36:26.860Z,15.7
2019-06-15T20:41:56.381Z,15.6
2019-06-15T20:47:26.280Z,15.6
2019-06-15T20:52:56.440Z,15.5
2019-06-15T20:58:23.247Z,15.5
2019-06-15T21:03:53.254Z,15.5
2019-06-15T21:09:22.413Z,15.4
2019-06-15T21:14:51.302Z,15.4
2019-06-15T21:20:21.330Z,15.4
2019-06-15T21:25:50.761Z,15.4
2019-06-15T21:31:19.405Z,15.3
2019-06-15T21:36:48.437Z,15.3
2019-06-15T21:42:17.346Z,15.3
2019-06-15T21:47:46.555Z,15.3
2019-06-15T21:53:16.139Z,15.3
2019-06-15T21:58:45.459Z,15.3
2019-06-15T22:04:16.593Z,15.3
2019-06-15T22:15:16.083Z,15.3
2019-06-15T22:20:46.777Z,15.3
2019-06-15T22:26:16.888Z,15.3
2019-06-15T22:31:43.634Z,15.3
2019-06-15T22:37:13.552Z,15.3
2019-06-15T22:42:42.578Z,15.3
2019-06-15T22:48:11.739Z,15.3
2019-06-15T22:53:41.671Z,15.3
2019-06-15T22:59:10.765Z,15.2
2019-06-15T23:04:39.635Z,15.2
2019-06-15T23:10:09.782Z,15.2
2019-06-15T23:15:38.697Z,15.2
2019-06-15T23:21:08.863Z,15.2
2019-06-15T23:26:37.758Z,15.1
2019-06-15T23:32:06.809Z,15.1
2019-06-15T23:43:06.199Z,15.1
2019-06-15T23:48:36.353Z,15
2019-06-15T23:54:04.684Z,15
2019-06-15T23:59:33.683Z,14.9
